Time;durP1;ratioP1;P1;durP2;ratioP2;P2;SDS_P1;SDS_P2;PMS_P1;PMS_P2;Temp;Humidity;BMP_temperature;BMP_pressure;BME280_temperature;BME280_humidity;BME280_pressure;Samples;Min_cycle;Max_cycle;Signal;HPM_P1;HPM_P2
2021/11/26 00:01:30;;;;;;;7.95;5.70;;;;;;;8.19;54.09;98900.50;3426683;28;20046;-71
2021/11/26 00:03:11;;;;;;;9.00;5.45;;;;;;;8.22;54.23;98910.72;3428307;28;20045;-72
2021/11/26 00:04:53;;;;;;;11.40;6.68;;;;;;;8.25;54.49;98923.56;3428855;28;20046;-71
2021/11/26 00:06:33;;;;;;;;;;;;;;;8.38;54.33;98896.25;3429133;28;20117;-71
2021/11/26 00:08:14;;;;;;;6.80;5.35;;;;;;;8.34;54.00;98913.63;3428750;28;19922;-73
2021/11/26 00:09:55;;;;;;;6.57;5.90;;;;;;;8.34;54.01;98902.16;3414806;29;20130;-73
2021/11/26 00:11:36;;;;;;;7.68;6.05;;;;;;;8.32;54.23;98909.53;3425995;28;20498;-73
2021/11/26 00:13:17;;;;;;;9.75;6.70;;;;;;;8.24;54.02;98892.75;3428653;28;20494;-73
2021/11/26 00:16:43;;;;;;;9.95;6.15;;;;;;;8.25;53.90;98886.41;3428424;28;20034;-73
2021/11/26 00:18:24;;;;;;;12.23;6.72;;;;;;;8.22;53.88;98900.09;3428680;28;20482;-73
2021/11/26 00:20:05;;;;;;;9.60;6.47;;;;;;;8.19;54.03;98894.38;3428996;28;20082;-74
2021/11/26 00:21:46;;;;;;;10.30;6.38;;;;;;;8.23;53.94;98891.09;3428680;28;20043;-73
2021/11/26 00:23:27;;;;;;;11.00;5.85;;;;;;;8.28;54.00;98907.25;3414405;29;20071;-74
2021/11/26 00:25:08;;;;;;;9.07;6.28;;;;;;;8.25;53.84;98888.25;3425781;28;20409;-72
2021/11/26 00:26:50;;;;;;;11.27;7.95;;;;;;;8.27;54.00;98887.03;3428837;28;20043;-74
2021/11/26 00:28:30;;;;;;;10.40;6.72;;;;;;;8.30;53.86;98891.94;3428476;28;20126;-71
2021/11/26 00:30:11;;;;;;;9.88;6.45;;;;;;;8.33;53.86;98884.59;3428332;28;20187;-73
2021/11/26 00:31:52;;;;;;;10.90;5.95;;;;;;;8.33;53.96;98892.56;3428231;28;20055;-72
2021/11/26 00:33:33;;;;;;;10.38;7.10;;;;;;;8.36;53.99;98886.84;3414227;29;20079;-71
2021/11/26 00:35:14;;;;;;;8.60;5.88;;;;;;;8.36;53.99;98878.88;3425381;28;20425;-72
2021/11/26 00:36:54;;;;;;;8.85;6.50;;;;;;;8.36;53.78;98878.88;3428359;28;20046;-72
2021/11/26 00:38:35;;;;;;;8.80;5.97;;;;;;;8.37;53.90;98893.81;3428431;28;20070;-72
2021/11/26 00:40:16;;;;;;;7.18;5.78;;;;;;;8.33;53.79;98877.44;3427555;28;20046;-73
2021/11/26 00:41:57;;;;;;;8.35;6.75;;;;;;;8.35;53.70;98879.91;3427991;28;20042;-72
2021/11/26 00:43:38;;;;;;;9.43;6.72;;;;;;;8.35;53.85;98877.25;3428595;28;20039;-72
2021/11/26 00:45:18;;;;;;;8.60;5.72;;;;;;;8.35;53.61;98877.25;3428403;28;20045;-72
2021/11/26 00:46:59;;;;;;;9.93;6.60;;;;;;;8.32;53.77;98877.66;3428413;28;20046;-71
2021/11/26 00:48:40;;;;;;;9.52;6.55;;;;;;;8.32;53.63;98877.66;3413977;29;20130;-72
2021/11/26 00:50:20;;;;;;;8.10;6.88;;;;;;;8.32;53.93;98872.34;3425330;28;20498;-72
2021/11/26 00:52:01;;;;;;;13.63;7.82;;;;;;;8.29;53.42;98879.69;3428543;28;20375;-72
2021/11/26 00:53:42;;;;;;;11.93;6.95;;;;;;;8.30;53.63;98870.72;3427691;28;20070;-72
2021/11/26 00:55:23;;;;;;;10.80;7.30;;;;;;;8.30;53.73;98875.19;3428367;28;20039;-72
2021/11/26 00:57:07;;;;;;;10.55;6.85;;;;;;;8.28;53.55;98883.34;3428267;28;20557;-73
2021/11/26 00:58:48;;;;;;;10.55;7.00;;;;;;;8.24;53.62;98871.50;3428129;28;20050;-73
2021/11/26 01:00:31;;;;;;;9.52;6.78;;;;;;;8.24;53.45;98879.47;3428343;28;20113;-74
2021/11/26 01:02:12;;;;;;;9.90;7.38;;;;;;;8.24;53.56;98865.41;3428185;28;20046;-73
2021/11/26 01:03:52;;;;;;;8.63;7.28;;;;;;;8.20;53.35;98870.25;3428438;28;20074;-73
2021/11/26 01:05:33;;;;;;;11.57;6.72;;;;;;;8.19;53.52;98876.59;3413776;28;20050;-72
2021/11/26 01:07:14;;;;;;;11.75;7.75;;;;;;;8.18;53.52;98861.69;3425146;28;20046;-71
2021/11/26 01:08:55;;;;;;;8.48;6.85;;;;;;;8.17;53.58;98859.25;3427813;28;20049;-71
2021/11/26 01:10:36;;;;;;;10.85;7.53;;;;;;;8.12;53.63;98867.78;3428200;28;20034;-71
2021/11/26 01:12:17;;;;;;;11.13;7.05;;;;;;;8.16;53.52;98868.19;3428245;28;20062;-71
2021/11/26 01:13:57;;;;;;;12.88;7.78;;;;;;;8.15;53.54;98862.09;3427780;28;20055;-72
2021/11/26 01:15:39;;;;;;;11.25;7.68;;;;;;;8.18;53.83;98856.38;3428130;28;20049;-70
2021/11/26 01:17:20;;;;;;;9.73;6.88;;;;;;;8.23;53.73;98861.09;3413525;29;20050;-71
2021/11/26 01:19:01;;;;;;;8.95;6.55;;;;;;;8.26;53.54;98850.91;3425232;28;20050;-71
2021/11/26 01:20:43;;;;;;;10.95;7.35;;;;;;;8.28;53.54;98862.13;3428320;28;20042;-72
2021/11/26 01:22:23;;;;;;;8.75;7.05;;;;;;;8.28;53.50;98848.84;3413738;29;20860;-71
2021/11/26 01:24:04;;;;;;;11.82;7.43;;;;;;;8.29;53.47;98847.84;3424538;28;20045;-72
2021/11/26 01:25:45;;;;;;;11.63;8.20;;;;;;;8.26;53.35;98839.44;3428091;28;20039;-72
2021/11/26 01:27:26;;;;;;;9.52;7.45;;;;;;;8.22;53.44;98841.69;3427768;28;20047;-71
2021/11/26 01:29:06;;;;;;;11.90;7.90;;;;;;;8.21;53.31;98840.06;3427861;28;20053;-71
2021/11/26 01:30:49;;;;;;;12.35;8.43;;;;;;;8.19;53.17;98831.47;3427843;28;20042;-71
2021/11/26 01:32:29;;;;;;;10.07;6.85;;;;;;;8.17;53.38;98846.78;3427610;28;20058;-71
2021/11/26 01:34:10;;;;;;;9.38;7.40;;;;;;;8.15;53.16;98832.88;3417042;28;20538;-71
2021/11/26 01:35:53;;;;;;;15.18;9.35;;;;;;;8.08;53.35;98834.72;3414418;29;20515;-70
2021/11/26 01:37:34;;;;;;;10.77;8.23;;;;;;;8.12;53.28;98857.19;3400439;29;20051;-71
2021/11/26 01:39:14;;;;;;;10.95;8.43;;;;;;;8.12;53.14;98841.25;3411786;29;20031;-72
2021/11/26 01:40:55;;;;;;;10.48;7.90;;;;;;;8.07;53.46;98841.03;3414554;29;20596;-71
2021/11/26 01:42:36;;;;;;;12.75;8.70;;;;;;;8.05;53.24;98837.75;3420775;28;20133;-71
2021/11/26 01:44:17;;;;;;;11.18;7.70;;;;;;;8.05;53.38;98846.56;3427382;28;20521;-74
2021/11/26 01:46:07;;;;;;;14.35;7.88;;;;;;;8.07;53.63;98841.03;3428000;28;20073;-73
2021/11/26 01:47:48;;;;;;;12.23;7.60;;;;;;;8.09;53.45;98844.31;3427845;28;20090;-72
2021/11/26 01:49:29;;;;;;;11.25;8.13;;;;;;;8.07;53.59;98836.53;3413424;29;20106;-74
2021/11/26 01:51:10;;;;;;;11.02;8.00;;;;;;;8.05;53.51;98829.78;3424945;28;20125;-73
2021/11/26 01:52:51;;;;;;;15.25;8.35;;;;;;;8.05;53.60;98832.44;3413215;29;20074;-72
2021/11/26 01:54:32;;;;;;;11.55;7.68;;;;;;;8.05;53.37;98817.38;3425065;28;20046;-73
2021/11/26 01:56:13;;;;;;;11.55;7.65;;;;;;;8.08;53.57;98829.41;3427811;28;20125;-71
2021/11/26 01:57:53;;;;;;;10.68;7.80;;;;;;;8.09;53.69;98828.38;3427893;28;20047;-73
2021/11/26 01:59:35;;;;;;;11.48;8.10;;;;;;;8.11;53.66;98812.28;3427728;28;20222;-73
2021/11/26 02:01:15;;;;;;;14.23;8.13;;;;;;;8.09;53.34;98818.59;3427587;28;20039;-72
2021/11/26 02:02:56;;;;;;;10.05;8.05;;;;;;;8.12;53.63;98819.22;3427309;28;20301;-72
2021/11/26 02:04:37;;;;;;;12.00;8.40;;;;;;;8.13;53.51;98813.72;3429916;28;20070;-74
2021/11/26 02:06:18;;;;;;;12.93;7.93;;;;;;;8.15;53.61;98811.66;3430638;28;20540;-75
2021/11/26 02:07:58;;;;;;;12.00;8.05;;;;;;;8.19;53.50;98809.44;3431090;28;20105;-74
2021/11/26 02:09:40;;;;;;;10.65;7.70;;;;;;;8.19;53.45;98799.63;3413812;29;20054;-73
2021/11/26 02:11:21;;;;;;;11.90;7.82;;;;;;;8.21;53.42;98816.19;3424986;28;20039;-73
2021/11/26 02:13:02;;;;;;;18.02;8.50;;;;;;;8.23;53.60;98806.16;3428481;28;20054;-74
2021/11/26 02:14:42;;;;;;;11.98;8.02;;;;;;;8.18;53.25;98797.97;3428702;28;20126;-74
2021/11/26 02:16:23;;;;;;;12.20;7.93;;;;;;;8.21;53.29;98807.38;3413884;29;20043;-74
2021/11/26 02:18:04;;;;;;;10.75;7.88;;;;;;;8.19;53.23;98799.63;3424245;28;20093;-72
2021/11/26 02:19:45;;;;;;;14.48;8.07;;;;;;;8.17;53.04;98804.31;3427529;28;20134;-71
2021/11/26 02:21:25;;;;;;;11.23;8.48;;;;;;;8.15;53.11;98809.00;3412988;29;20043;-71
2021/11/26 02:23:06;;;;;;;11.00;8.23;;;;;;;8.13;52.79;98795.13;3424944;28;20051;-72
2021/11/26 02:24:47;;;;;;;12.48;8.27;;;;;;;8.10;52.95;98787.56;3427293;28;20043;-72
2021/11/26 02:26:28;;;;;;;10.48;8.63;;;;;;;8.11;53.18;98793.69;3429566;28;20113;-73
2021/11/26 02:28:10;;;;;;;12.02;8.10;;;;;;;8.09;52.97;98828.38;3430511;28;20035;-73
2021/11/26 02:29:54;;;;;;;;;;;;;;;8.13;53.02;98779.22;3429475;28;20046;-73
2021/11/26 02:31:35;;;;;;;12.38;7.65;;;;;;;8.06;52.89;98770.41;3429808;28;19961;-71
2021/11/26 02:33:18;;;;;;;12.45;8.20;;;;;;;8.00;52.75;98777.34;3428864;28;20047;-73
2021/11/26 02:34:59;;;;;;;14.88;8.15;;;;;;;8.04;52.82;98786.53;3430176;28;20046;-73
2021/11/26 02:36:40;;;;;;;9.82;7.25;;;;;;;8.06;52.97;98783.69;3430301;28;20435;-74
2021/11/26 02:38:22;;;;;;;10.65;8.23;;;;;;;8.07;52.84;98774.69;3429770;28;20047;-71
2021/11/26 02:40:04;;;;;;;11.07;7.93;;;;;;;8.09;52.70;98772.66;3430239;28;20130;-71
2021/11/26 02:41:45;;;;;;;13.57;8.50;;;;;;;8.11;52.89;98773.28;3431610;28;20506;-72
2021/11/26 02:43:26;;;;;;;12.52;9.25;;;;;;;8.12;52.93;98772.25;3434092;28;20345;-72
2021/11/26 02:45:09;;;;;;;13.70;8.45;;;;;;;8.12;52.78;98777.56;3430786;28;20038;-73
2021/11/26 02:46:50;;;;;;;11.95;8.63;;;;;;;8.11;52.82;98775.94;3429506;28;20070;-73
2021/11/26 02:48:31;;;;;;;13.38;8.52;;;;;;;8.09;52.63;98770.81;3430034;28;20453;-75
2021/11/26 02:50:12;;;;;;;12.07;8.45;;;;;;;8.08;52.78;98776.34;3429877;28;20446;-73
2021/11/26 02:51:53;;;;;;;14.40;9.00;;;;;;;8.10;52.54;98768.97;3415715;28;20043;-72
2021/11/26 02:53:33;;;;;;;16.13;9.15;;;;;;;8.11;52.69;98773.28;3427147;28;20386;-75
2021/11/26 02:55:19;;;;;;;9.63;8.02;;;;;;;8.14;52.65;98767.56;3430099;28;20612;-74
2021/11/26 02:57:00;;;;;;;10.93;7.63;;;;;;;8.15;52.66;98758.56;3429868;28;20053;-72
2021/11/26 02:58:40;;;;;;;13.75;8.73;;;;;;;8.12;52.42;98764.28;3430050;28;20047;-73
2021/11/26 03:00:26;;;;;;;11.18;8.30;;;;;;;8.08;52.32;98766.53;3429294;28;20042;-72
2021/11/26 03:02:07;;;;;;;12.82;8.73;;;;;;;8.06;52.28;98768.56;3429615;28;20482;-73
2021/11/26 03:03:47;;;;;;;10.77;7.95;;;;;;;8.08;52.42;98753.28;3428657;28;20050;-74
2021/11/26 03:05:28;;;;;;;13.00;8.73;;;;;;;8.10;52.66;98750.41;3429687;28;20050;-71
2021/11/26 03:07:09;;;;;;;13.55;7.78;;;;;;;8.17;52.20;98742.47;3429664;28;20383;-72
2021/11/26 03:08:50;;;;;;;10.35;8.00;;;;;;;8.16;52.12;98746.97;3428694;28;20529;-72
2021/11/26 03:10:31;;;;;;;14.80;8.27;;;;;;;8.12;51.76;98740.41;3415474;29;20117;-74
2021/11/26 03:12:12;;;;;;;14.30;8.93;;;;;;;8.09;51.92;98740.81;3426747;28;20062;-72
2021/11/26 03:13:53;;;;;;;11.23;7.75;;;;;;;8.06;51.97;98727.97;3428762;28;20046;-70
2021/11/26 03:15:37;;;;;;;13.40;8.75;;;;;;;8.07;52.05;98742.84;3414864;29;20109;-71
2021/11/26 03:17:18;;;;;;;12.25;8.52;;;;;;;8.05;51.98;98734.25;3427119;28;20531;-72
2021/11/26 03:18:59;;;;;;;14.73;8.35;;;;;;;8.04;51.95;98738.75;3414966;29;20035;-72
2021/11/26 03:20:40;;;;;;;10.52;8.15;;;;;;;8.03;51.84;98736.31;3426593;28;20418;-71
2021/11/26 03:22:20;;;;;;;12.45;8.90;;;;;;;8.00;51.73;98734.06;3428861;28;20057;-73
2021/11/26 03:24:01;;;;;;;10.52;8.32;;;;;;;8.00;51.89;98726.94;3430050;28;20050;-71
2021/11/26 03:25:43;;;;;;;15.48;9.35;;;;;;;8.00;51.95;98748.16;3428726;28;20043;-73
2021/11/26 03:27:23;;;;;;;10.90;7.60;;;;;;;8.01;51.98;98733.06;3429564;28;20042;-74
2021/11/26 03:29:04;;;;;;;14.02;9.00;;;;;;;8.02;51.77;98724.88;3429575;28;20041;-72
2021/11/26 03:30:45;;;;;;;14.65;8.93;;;;;;;8.00;52.04;98715.47;3428957;28;20042;-72
2021/11/26 03:32:26;;;;;;;11.15;8.05;;;;;;;8.02;51.85;98719.56;3428490;28;20046;-73
2021/11/26 03:34:07;;;;;;;12.15;9.02;;;;;;;8.00;51.89;98716.31;3429476;28;20528;-72
2021/11/26 03:35:48;;;;;;;11.38;8.30;;;;;;;8.00;51.81;98715.47;3429289;28;20085;-72
2021/11/26 03:37:29;;;;;;;10.80;8.40;;;;;;;8.00;51.81;98710.16;3428341;28;20041;-73
2021/11/26 03:39:10;;;;;;;11.63;8.68;;;;;;;7.96;51.94;98708.97;3415367;29;20752;-71
2021/11/26 03:40:50;;;;;;;11.38;8.18;;;;;;;7.99;51.84;98713.84;3426072;28;20121;-73
2021/11/26 03:42:31;;;;;;;12.02;8.57;;;;;;;7.98;51.93;98715.69;3429566;28;20031;-72
2021/11/26 03:44:13;;;;;;;13.02;9.45;;;;;;;7.93;51.67;98727.94;3429540;28;20422;-72
2021/11/26 03:45:54;;;;;;;9.82;7.88;;;;;;;7.94;51.82;98705.69;3429632;28;20042;-73
2021/11/26 03:47:34;;;;;;;11.98;8.30;;;;;;;7.93;51.76;98698.75;3429388;28;20194;-72
2021/11/26 03:49:15;;;;;;;11.52;8.38;;;;;;;7.95;51.85;98702.00;3428149;28;20042;-74
2021/11/26 03:50:56;;;;;;;10.90;7.88;;;;;;;7.98;51.72;98705.09;3429405;28;20042;-72
2021/11/26 03:52:37;;;;;;;12.13;9.07;;;;;;;7.99;51.67;98697.94;3429339;28;20061;-73
2021/11/26 03:54:18;;;;;;;10.07;7.95;;;;;;;8.02;51.78;98701.00;3428976;28;20043;-71
2021/11/26 03:55:59;;;;;;;14.13;8.68;;;;;;;8.04;51.70;98695.50;3429425;28;20425;-73
2021/11/26 03:57:40;;;;;;;12.95;9.10;;;;;;;8.04;51.75;98690.19;3429344;28;20122;-72
2021/11/26 03:59:20;;;;;;;10.27;8.80;;;;;;;8.01;51.46;98679.97;3429147;28;20549;-72
2021/11/26 04:01:01;;;;;;;10.88;7.70;;;;;;;7.98;51.46;98689.16;3429048;28;20039;-71
2021/11/26 04:02:43;;;;;;;11.45;7.95;;;;;;;7.96;51.46;98677.94;3428981;28;20073;-70
2021/11/26 04:04:24;;;;;;;13.48;8.90;;;;;;;7.94;51.71;98677.31;3429182;28;20097;-69
2021/11/26 04:06:05;;;;;;;12.15;8.48;;;;;;;7.89;51.26;98708.13;3429361;28;20066;-69
2021/11/26 04:07:46;;;;;;;10.75;8.10;;;;;;;7.80;51.29;98687.09;3414902;29;20043;-71
2021/11/26 04:09:27;;;;;;;12.60;9.02;;;;;;;7.74;51.22;98690.53;3426553;28;20038;-74
2021/11/26 04:11:07;;;;;;;10.52;8.23;;;;;;;7.69;51.34;98679.72;3429098;28;20096;-73
2021/11/26 04:12:49;;;;;;;14.13;8.85;;;;;;;7.67;51.57;98692.38;3428940;28;20502;-72
2021/11/26 04:14:30;;;;;;;12.60;8.40;;;;;;;7.68;51.73;98694.00;3428631;28;20050;-72
2021/11/26 04:16:14;;;;;;;13.55;9.15;;;;;;;7.68;51.92;98707.25;3429038;28;20039;-72
2021/11/26 04:17:57;;;;;;;11.25;8.60;;;;;;;7.67;51.56;98705.63;3429249;28;20102;-73
2021/11/26 04:19:38;;;;;;;12.30;8.60;;;;;;;7.63;51.50;98699.91;3429217;28;20054;-73
2021/11/26 04:21:19;;;;;;;14.93;9.45;;;;;;;7.61;51.46;98703.75;3428857;28;20502;-74
2021/11/26 04:23:00;;;;;;;11.85;8.40;;;;;;;7.55;51.21;98697.44;3428864;28;20053;-72
2021/11/26 04:24:41;;;;;;;10.32;7.78;;;;;;;7.43;51.27;98699.84;3429378;28;20043;-72
2021/11/26 04:26:21;;;;;;;12.32;9.25;;;;;;;7.37;51.28;98702.47;3428971;28;20050;-72
2021/11/26 04:28:02;;;;;;;13.43;8.57;;;;;;;7.34;51.43;98716.94;3429004;28;20567;-74
2021/11/26 04:29:43;;;;;;;11.93;8.52;;;;;;;7.33;51.40;98709.16;3428003;28;20043;-75
2021/11/26 04:31:24;;;;;;;14.98;8.68;;;;;;;7.29;51.43;98708.75;3428531;28;20093;-76
2021/11/26 04:33:05;;;;;;;11.05;8.50;;;;;;;7.33;51.74;98720.63;3428936;28;20354;-72
2021/11/26 04:34:45;;;;;;;10.60;7.47;;;;;;;7.35;51.90;98723.03;3428589;28;20445;-74
2021/11/26 04:36:26;;;;;;;10.52;8.57;;;;;;;7.43;52.15;98729.00;3429165;28;20038;-73
2021/11/26 04:38:08;;;;;;;14.13;7.75;;;;;;;7.48;52.10;98709.03;3427939;28;20043;-74
2021/11/26 04:39:49;;;;;;;13.23;8.45;;;;;;;7.54;52.30;98702.94;3428425;28;20047;-74
2021/11/26 04:41:29;;;;;;;9.68;7.68;;;;;;;7.57;52.10;98699.91;3428967;28;20107;-75
2021/11/26 04:43:10;;;;;;;11.40;7.57;;;;;;;7.62;52.45;98702.75;3428879;28;20053;-76
2021/11/26 04:44:51;;;;;;;12.32;7.50;;;;;;;7.64;52.58;98721.91;3417446;28;20043;-74
2021/11/26 04:46:32;;;;;;;12.27;8.45;;;;;;;7.63;52.13;98693.78;3415167;29;20039;-73
2021/11/26 04:48:13;;;;;;;9.40;7.30;;;;;;;7.62;51.75;98711.53;3400832;29;20054;-73
2021/11/26 04:49:53;;;;;;;11.55;7.88;;;;;;;7.63;51.97;98697.25;3398448;29;20047;-73
2021/11/26 04:51:34;;;;;;;10.40;7.25;;;;;;;7.67;52.16;98715.41;3412284;29;20047;-73
2021/11/26 04:53:16;;;;;;;16.23;7.88;;;;;;;7.68;52.16;98701.94;3401201;29;20487;-76
2021/11/26 04:54:56;;;;;;;9.63;8.07;;;;;;;7.69;52.19;98708.88;3412712;29;20403;-75
2021/11/26 04:56:37;;;;;;;10.88;7.50;;;;;;;7.70;51.86;98699.94;3415222;29;20039;-73
2021/11/26 04:58:18;;;;;;;12.52;7.70;;;;;;;7.67;51.91;98697.69;3427037;28;20072;-74
2021/11/26 05:00:00;;;;;;;11.07;7.72;;;;;;;7.65;51.87;98703.16;3413548;29;20039;-75
2021/11/26 05:01:41;;;;;;;10.85;7.68;;;;;;;7.63;51.66;98707.03;3426002;28;20050;-74
2021/11/26 05:03:21;;;;;;;12.07;8.43;;;;;;;7.59;51.73;98693.38;3428433;28;20046;-73
2021/11/26 05:05:03;;;;;;;11.88;7.55;;;;;;;7.62;51.76;98697.47;3428541;28;20141;-75
2021/11/26 05:06:45;;;;;;;10.47;7.93;;;;;;;7.65;51.96;98697.88;3428565;28;20043;-75
2021/11/26 05:08:27;;;;;;;12.15;7.75;;;;;;;7.71;51.96;98714.00;3428384;28;20117;-74
2021/11/26 05:10:08;;;;;;;13.52;7.95;;;;;;;7.74;51.75;98682.56;3388281;29;20039;-75
2021/11/26 05:11:51;;;;;;;12.95;7.78;;;;;;;7.76;51.65;98683.19;3372884;29;20048;-75
2021/11/26 05:13:33;;;;;;;;;;;;;;;7.86;51.62;98688.94;3397453;29;20047;-74
2021/11/26 05:15:15;;;;;;;8.10;6.72;;;;;;;7.81;51.59;98680.75;3402145;29;20406;-75
2021/11/26 05:16:55;;;;;;;11.93;7.10;;;;;;;7.83;51.57;98691.19;3388155;29;20393;-76
2021/11/26 05:18:36;;;;;;;10.38;7.97;;;;;;;7.80;51.31;98689.75;3399492;29;20050;-77
2021/11/26 05:20:17;;;;;;;9.93;7.45;;;;;;;7.78;51.15;98675.84;3422542;28;20425;-75
2021/11/26 05:21:58;;;;;;;9.32;7.47;;;;;;;7.74;51.36;98674.63;3428638;28;20046;-73
2021/11/26 05:23:38;;;;;;;11.60;7.00;;;;;;;7.77;51.87;98668.09;3428495;28;20454;-77
2021/11/26 05:25:19;;;;;;;12.95;7.50;;;;;;;7.80;51.85;98663.22;3427348;28;20078;-74
2021/11/26 05:27:00;;;;;;;10.35;7.68;;;;;;;7.82;51.77;98653.22;3414243;29;20130;-76
2021/11/26 05:28:41;;;;;;;11.88;8.00;;;;;;;7.86;51.74;98646.50;3425551;28;20053;-75
2021/11/26 05:30:21;;;;;;;10.02;7.47;;;;;;;7.88;51.70;98653.44;3427888;28;20077;-71
2021/11/26 05:32:03;;;;;;;12.38;7.93;;;;;;;7.86;51.23;98643.84;3428001;28;20515;-72
2021/11/26 05:33:44;;;;;;;14.18;8.45;;;;;;;7.83;51.31;98657.50;3428036;28;20095;-75
2021/11/26 05:35:24;;;;;;;13.25;8.05;;;;;;;7.83;51.36;98662.81;3428248;28;20150;-72
2021/11/26 05:37:05;;;;;;;12.43;8.00;;;;;;;7.82;51.57;98645.28;3426981;28;20078;-77
2021/11/26 05:38:46;;;;;;;10.48;7.80;;;;;;;7.86;51.36;98651.78;3427325;28;20057;-76
2021/11/26 05:40:26;;;;;;;11.55;7.75;;;;;;;7.86;51.46;98635.88;3427969;28;20146;-77
2021/11/26 05:42:07;;;;;;;9.63;7.28;;;;;;;7.88;51.32;98650.78;3400928;29;20071;-76
2021/11/26 05:43:48;;;;;;;11.07;7.75;;;;;;;7.88;51.35;98656.09;3413173;28;20142;-76
2021/11/26 05:45:29;;;;;;;12.75;8.35;;;;;;;7.84;51.31;98664.44;3424554;28;20039;-78
2021/11/26 05:47:10;;;;;;;15.07;8.65;;;;;;;7.82;51.20;98665.66;3427603;28;20054;-76
2021/11/26 05:48:52;;;;;;;11.25;7.93;;;;;;;7.82;51.32;98661.19;3428090;28;20049;-74
2021/11/26 05:50:56;;;;;;;15.77;8.82;;;;;;;7.86;51.63;98651.78;3430468;28;20046;-73
2021/11/26 05:52:45;;;;;;;13.98;8.20;;;;;;;7.82;51.00;98661.19;3431544;28;20447;-73
2021/11/26 05:54:27;;;;;;;14.23;8.20;;;;;;;7.83;51.39;98660.16;3427574;28;20041;-74
2021/11/26 05:56:08;;;;;;;12.85;7.93;;;;;;;7.82;51.35;98655.88;3428301;28;20498;-74
2021/11/26 05:57:51;;;;;;;11.18;7.72;;;;;;;7.80;51.13;98649.16;3428116;28;20085;-74
2021/11/26 05:59:31;;;;;;;11.07;7.03;;;;;;;7.76;50.96;98646.06;3412755;28;20142;-74
2021/11/26 06:01:12;;;;;;;12.73;7.60;;;;;;;7.74;50.86;98636.69;3417622;28;20421;-73
2021/11/26 06:02:53;;;;;;;14.18;8.73;;;;;;;7.73;51.14;98635.88;3416096;29;20057;-74
2021/11/26 06:04:34;;;;;;;11.52;7.68;;;;;;;7.76;51.27;98640.75;3427183;28;20038;-75
2021/11/26 06:06:14;;;;;;;11.95;8.57;;;;;;;7.79;51.25;98635.03;3430157;28;20480;-73
2021/11/26 06:07:55;;;;;;;14.13;8.07;;;;;;;7.85;51.22;98639.56;3430513;28;20055;-74
2021/11/26 06:09:38;;;;;;;11.55;8.27;;;;;;;7.84;51.20;98637.91;3428025;28;20089;-75
2021/11/26 06:11:19;;;;;;;14.98;7.80;;;;;;;7.86;51.25;98625.25;3424815;28;20046;-74
2021/11/26 06:13:00;;;;;;;12.50;8.75;;;;;;;7.85;51.13;98625.50;3430511;28;20034;-73
2021/11/26 06:14:40;;;;;;;13.05;9.07;;;;;;;7.90;51.09;98625.69;3429223;28;20481;-74
2021/11/26 06:16:21;;;;;;;11.20;7.50;;;;;;;7.94;51.27;98618.13;3421188;28;20039;-73
2021/11/26 06:18:02;;;;;;;11.98;6.95;;;;;;;8.03;51.38;98624.88;3429844;28;20067;-72
2021/11/26 06:19:42;;;;;;;12.20;8.70;;;;;;;8.08;51.46;98617.94;3429473;28;20406;-74
2021/11/26 06:21:23;;;;;;;12.18;7.32;;;;;;;8.13;51.16;98619.13;3414838;28;20585;-73
2021/11/26 06:23:04;;;;;;;13.63;7.93;;;;;;;8.14;50.97;98629.56;3426987;28;20086;-73
2021/11/26 06:24:45;;;;;;;11.57;7.88;;;;;;;8.15;50.82;98630.38;3430139;28;20042;-72
2021/11/26 06:26:26;;;;;;;9.38;7.03;;;;;;;8.15;50.86;98633.84;3429824;28;20417;-73
2021/11/26 06:28:07;;;;;;;9.57;7.72;;;;;;;8.13;50.65;98635.91;3416005;28;20088;-73
2021/11/26 06:29:48;;;;;;;13.48;9.07;;;;;;;8.09;50.36;98647.94;3415006;28;20172;-74
2021/11/26 06:31:28;;;;;;;14.18;8.68;;;;;;;8.03;50.30;98640.81;3425479;28;20528;-74
2021/11/26 06:33:09;;;;;;;11.52;7.82;;;;;;;7.94;50.50;98642.00;3415189;29;20035;-73
2021/11/26 06:34:50;;;;;;;12.98;8.15;;;;;;;7.95;50.45;98649.78;3392157;29;20099;-74
2021/11/26 06:36:33;;;;;;;12.52;8.35;;;;;;;7.93;50.47;98646.50;3416689;28;20043;-75
2021/11/26 06:38:13;;;;;;;14.82;8.45;;;;;;;7.92;50.33;98650.16;3415795;29;20047;-74
2021/11/26 06:39:54;;;;;;;10.57;7.60;;;;;;;7.89;50.39;98644.44;3427465;28;20044;-72
2021/11/26 06:41:35;;;;;;;11.65;7.70;;;;;;;7.89;50.61;98657.72;3429975;28;20042;-74
2021/11/26 06:43:16;;;;;;;13.63;8.30;;;;;;;7.87;50.49;98652.59;3429321;28;20043;-72
2021/11/26 06:44:56;;;;;;;12.73;8.07;;;;;;;7.87;50.52;98655.25;3428911;28;20038;-72
2021/11/26 06:46:37;;;;;;;10.75;7.57;;;;;;;7.87;50.53;98671.16;3429200;28;20097;-73
2021/11/26 06:48:18;;;;;;;12.57;8.25;;;;;;;7.86;50.43;98650.97;3415301;29;20039;-72
2021/11/26 06:49:59;;;;;;;14.02;7.80;;;;;;;7.83;50.46;98654.84;3426513;28;20125;-72
2021/11/26 06:51:39;;;;;;;10.77;7.05;;;;;;;7.85;50.49;98649.34;3428657;28;20043;-73
2021/11/26 06:53:20;;;;;;;12.35;7.88;;;;;;;7.86;50.53;98657.09;3429537;28;20036;-73
2021/11/26 06:55:02;;;;;;;10.73;7.70;;;;;;;7.88;50.38;98637.53;3429621;28;20474;-72
2021/11/26 06:56:44;;;;;;;13.75;7.25;;;;;;;7.90;50.26;98646.06;3429950;28;20046;-72
2021/11/26 06:58:24;;;;;;;9.55;7.28;;;;;;;7.89;50.31;98641.81;3431714;28;20053;-71
2021/11/26 07:00:08;;;;;;;10.38;8.40;;;;;;;7.89;50.36;98649.75;3419360;29;20053;-72
2021/11/26 07:01:49;;;;;;;11.38;7.70;;;;;;;7.89;50.55;98642.63;3434481;28;20038;-74
2021/11/26 07:03:30;;;;;;;11.43;7.53;;;;;;;7.84;50.55;98643.22;3435439;28;20138;-73
2021/11/26 07:05:11;;;;;;;12.20;8.13;;;;;;;7.91;50.41;98653.84;3434054;28;20651;-73
2021/11/26 07:06:51;;;;;;;8.82;6.38;;;;;;;7.97;50.43;98652.22;3434284;28;20085;-72
2021/11/26 07:08:32;;;;;;;14.73;7.85;;;;;;;8.00;50.43;98665.91;3432159;28;20093;-73
2021/11/26 07:10:14;;;;;;;9.40;6.80;;;;;;;7.98;50.47;98662.63;3431768;28;20101;-73
2021/11/26 07:11:54;;;;;;;11.15;7.60;;;;;;;8.00;50.37;98659.75;3434885;28;20037;-73
2021/11/26 07:13:35;;;;;;;9.82;7.10;;;;;;;8.00;50.45;98646.50;3421084;29;20550;-71
2021/11/26 07:15:16;;;;;;;12.90;7.70;;;;;;;7.97;50.47;98649.56;3433599;28;20043;-72
2021/11/26 07:16:57;;;;;;;11.07;7.78;;;;;;;7.95;50.38;98635.66;3433665;28;20039;-73
2021/11/26 07:18:39;;;;;;;11.45;7.43;;;;;;;8.01;50.58;98648.13;3434005;28;20061;-72
2021/11/26 07:20:20;;;;;;;12.00;8.20;;;;;;;7.98;50.55;98646.72;3427270;28;20043;-72
2021/11/26 07:22:01;;;;;;;11.40;6.97;;;;;;;7.99;50.32;98647.53;3422013;28;20038;-74
2021/11/26 07:23:42;;;;;;;12.80;7.20;;;;;;;7.98;50.55;98646.72;3421495;28;20056;-72
2021/11/26 07:25:23;;;;;;;11.80;7.88;;;;;;;7.98;50.67;98632.63;3429928;28;20154;-73
2021/11/26 07:27:04;;;;;;;11.43;7.45;;;;;;;8.00;50.48;98641.19;3415688;29;20051;-72
2021/11/26 07:28:45;;;;;;;9.68;7.38;;;;;;;8.00;50.68;98610.19;3427745;28;20093;-71
2021/11/26 07:30:26;;;;;;;11.82;7.80;;;;;;;8.02;50.66;98608.13;3430315;28;20057;-73
2021/11/26 07:32:07;;;;;;;9.35;7.50;;;;;;;8.07;50.70;98586.28;3414689;29;20530;-73
2021/11/26 07:33:48;;;;;;;13.20;8.98;;;;;;;8.11;50.58;98587.50;3427342;28;20093;-73
2021/11/26 07:35:29;;;;;;;10.38;7.38;;;;;;;8.05;50.44;98581.19;3416101;28;20114;-73
2021/11/26 07:37:12;;;;;;;12.02;7.88;;;;;;;8.08;50.36;98586.09;3416200;28;20085;-72
2021/11/26 07:38:53;;;;;;;10.82;7.93;;;;;;;8.02;50.21;98597.50;3416337;29;20047;-71
2021/11/26 07:40:38;;;;;;;11.52;7.85;;;;;;;7.96;50.04;98586.91;3416582;29;20046;-73
2021/11/26 07:42:19;;;;;;;10.57;7.50;;;;;;;7.91;50.27;98560.19;3416060;29;20513;-74
2021/11/26 07:43:59;;;;;;;13.45;8.38;;;;;;;7.91;50.22;98576.09;3415794;28;20088;-72
2021/11/26 07:45:40;;;;;;;12.55;7.47;;;;;;;7.93;50.26;98576.72;3415400;29;20044;-73
2021/11/26 07:47:23;;;;;;;11.48;7.22;;;;;;;7.92;50.34;98583.03;3414744;29;20097;-73
2021/11/26 07:49:04;;;;;;;15.20;8.10;;;;;;;7.91;50.44;98581.41;3415621;29;20046;-74
2021/11/26 07:50:45;;;;;;;11.32;7.03;;;;;;;7.91;50.35;98568.94;3401705;29;20050;-71
2021/11/26 07:52:26;;;;;;;15.23;8.13;;;;;;;7.90;50.28;98572.63;3412480;29;20416;-71
2021/11/26 07:54:07;;;;;;;11.13;7.68;;;;;;;7.90;50.39;98558.53;3417980;28;20102;-73
2021/11/26 07:55:49;;;;;;;10.18;7.03;;;;;;;7.89;50.48;98548.94;3415576;29;20100;-72
2021/11/26 07:57:29;;;;;;;15.45;8.68;;;;;;;7.90;50.39;98550.56;3417596;28;20035;-71
2021/11/26 07:59:10;;;;;;;11.27;6.68;;;;;;;7.91;50.64;98558.34;3415898;29;20046;-71
2021/11/26 08:00:51;;;;;;;11.07;7.15;;;;;;;7.95;50.86;98556.06;3418352;28;20043;-73